sensor_id;sensor_type;location;lat;lon;timestamp;pressure;altitude;pressure_sealevel;temperature;humidity
20825;BME280;10573;50.936;6.978;2023-01-31T00:00:28;102095.31;;;7.28;63.98
20825;BME280;10573;50.936;6.978;2023-01-31T00:02:53;102099.94;;;7.26;63.51
20825;BME280;10573;50.936;6.978;2023-01-31T00:05:19;102096.47;;;7.24;63.93
20825;BME280;10573;50.936;6.978;2023-01-31T00:07:44;102100.56;;;7.31;63.73
20825;BME280;10573;50.936;6.978;2023-01-31T00:10:10;102115.56;;;7.07;63.87
20825;BME280;10573;50.936;6.978;2023-01-31T00:12:35;102112.91;;;7.21;63.70
20825;BME280;10573;50.936;6.978;2023-01-31T00:15:01;102103.13;;;7.18;63.91
20825;BME280;10573;50.936;6.978;2023-01-31T00:17:26;102101.63;;;7.13;64.13
20825;BME280;10573;50.936;6.978;2023-01-31T00:19:51;102102.69;;;7.10;64.33
20825;BME280;10573;50.936;6.978;2023-01-31T00:22:17;102112.03;;;7.04;64.20
20825;BME280;10573;50.936;6.978;2023-01-31T00:24:42;102112.56;;;7.11;64.03
20825;BME280;10573;50.936;6.978;2023-01-31T00:27:07;102104.19;;;7.16;63.71
20825;BME280;10573;50.936;6.978;2023-01-31T00:29:32;102107.00;;;6.98;64.05
20825;BME280;10573;50.936;6.978;2023-01-31T00:31:58;102105.25;;;6.97;64.26
20825;BME280;10573;50.936;6.978;2023-01-31T00:34:23;102101.00;;;7.08;64.37
20825;BME280;10573;50.936;6.978;2023-01-31T00:36:48;102098.25;;;7.09;64.37
20825;BME280;10573;50.936;6.978;2023-01-31T00:39:13;102104.34;;;7.13;63.90
20825;BME280;10573;50.936;6.978;2023-01-31T00:41:39;102107.34;;;7.08;63.94
20825;BME280;10573;50.936;6.978;2023-01-31T00:44:04;102102.75;;;7.25;64.06
20825;BME280;10573;50.936;6.978;2023-01-31T00:46:30;102101.00;;;7.08;64.19
20825;BME280;10573;50.936;6.978;2023-01-31T00:48:55;102097.34;;;7.25;64.32
20825;BME280;10573;50.936;6.978;2023-01-31T00:51:21;102087.41;;;7.09;64.58
20825;BME280;10573;50.936;6.978;2023-01-31T00:53:47;102090.44;;;7.19;63.85
20825;BME280;10573;50.936;6.978;2023-01-31T00:56:14;102093.06;;;7.04;64.03
20825;BME280;10573;50.936;6.978;2023-01-31T00:58:39;102095.97;;;7.01;64.32
20825;BME280;10573;50.936;6.978;2023-01-31T01:01:06;102104.34;;;6.81;64.84
20825;BME280;10573;50.936;6.978;2023-01-31T01:03:31;102094.22;;;7.00;64.57
20825;BME280;10573;50.936;6.978;2023-01-31T01:05:56;102101.13;;;6.90;64.44
20825;BME280;10573;50.936;6.978;2023-01-31T01:08:22;102107.16;;;6.79;64.90
20825;BME280;10573;50.936;6.978;2023-01-31T01:10:47;102106.19;;;6.64;65.49
20825;BME280;10573;50.936;6.978;2023-01-31T01:13:12;102107.84;;;6.67;65.31
20825;BME280;10573;50.936;6.978;2023-01-31T01:15:38;102109.59;;;6.52;65.21
20825;BME280;10573;50.936;6.978;2023-01-31T01:18:03;102118.16;;;6.60;65.80
20825;BME280;10573;50.936;6.978;2023-01-31T01:20:28;102114.91;;;6.53;65.89
20825;BME280;10573;50.936;6.978;2023-01-31T01:22:53;102115.00;;;6.52;65.55
20825;BME280;10573;50.936;6.978;2023-01-31T01:25:19;102117.81;;;6.66;65.61
20825;BME280;10573;50.936;6.978;2023-01-31T01:27:44;102117.97;;;6.63;65.37
20825;BME280;10573;50.936;6.978;2023-01-31T01:30:10;102118.16;;;6.76;65.05
20825;BME280;10573;50.936;6.978;2023-01-31T01:32:36;102112.66;;;6.78;64.87
20825;BME280;10573;50.936;6.978;2023-01-31T01:35:02;102109.78;;;6.81;64.45
20825;BME280;10573;50.936;6.978;2023-01-31T01:37:27;102126.72;;;6.68;64.79
20825;BME280;10573;50.936;6.978;2023-01-31T01:39:54;102116.88;;;6.67;65.07
20825;BME280;10573;50.936;6.978;2023-01-31T01:42:23;102113.78;;;6.74;64.63
20825;BME280;10573;50.936;6.978;2023-01-31T01:44:57;102115.66;;;6.73;64.79
20825;BME280;10573;50.936;6.978;2023-01-31T01:52:27;102097.97;;;6.50;65.08
20825;BME280;10573;50.936;6.978;2023-01-31T01:55:03;102108.78;;;6.50;64.69
20825;BME280;10573;50.936;6.978;2023-01-31T01:57:35;102095.97;;;6.53;64.81
20825;BME280;10573;50.936;6.978;2023-01-31T02:00:07;102103.47;;;6.64;64.42
20825;BME280;10573;50.936;6.978;2023-01-31T02:02:33;102100.84;;;6.47;65.22
20825;BME280;10573;50.936;6.978;2023-01-31T02:04:59;102096.50;;;6.60;64.53
20825;BME280;10573;50.936;6.978;2023-01-31T02:07:24;102105.56;;;6.59;64.65
20825;BME280;10573;50.936;6.978;2023-01-31T02:09:53;102101.03;;;6.44;65.15
20825;BME280;10573;50.936;6.978;2023-01-31T02:12:20;102101.47;;;6.52;64.91
20825;BME280;10573;50.936;6.978;2023-01-31T02:14:45;102096.69;;;6.57;64.38
20825;BME280;10573;50.936;6.978;2023-01-31T02:17:15;102089.00;;;6.65;64.57
20825;BME280;10573;50.936;6.978;2023-01-31T02:22:24;102106.00;;;6.35;65.48
20825;BME280;10573;50.936;6.978;2023-01-31T02:29:53;102106.31;;;6.29;65.19
20825;BME280;10573;50.936;6.978;2023-01-31T02:40:15;102108.13;;;6.13;65.82
20825;BME280;10573;50.936;6.978;2023-01-31T02:52:51;102082.22;;;6.25;65.50
20825;BME280;10573;50.936;6.978;2023-01-31T02:55:37;102096.28;;;6.31;65.63
20825;BME280;10573;50.936;6.978;2023-01-31T02:58:22;102097.50;;;6.42;65.38
20825;BME280;10573;50.936;6.978;2023-01-31T03:00:49;102100.81;;;6.31;65.69
20825;BME280;10573;50.936;6.978;2023-01-31T03:03:19;102098.66;;;6.37;65.19
20825;BME280;10573;50.936;6.978;2023-01-31T03:05:55;102103.28;;;6.35;65.18
20825;BME280;10573;50.936;6.978;2023-01-31T03:08:21;102094.44;;;6.32;65.23
20825;BME280;10573;50.936;6.978;2023-01-31T03:10:53;102100.56;;;6.35;65.13
20825;BME280;10573;50.936;6.978;2023-01-31T03:13:31;102099.44;;;6.40;65.04
20825;BME280;10573;50.936;6.978;2023-01-31T03:18:43;102094.66;;;6.45;65.12
20825;BME280;10573;50.936;6.978;2023-01-31T03:21:12;102091.94;;;6.45;64.76
20825;BME280;10573;50.936;6.978;2023-01-31T03:23:38;102092.47;;;6.35;65.00
20825;BME280;10573;50.936;6.978;2023-01-31T03:26:05;102089.84;;;6.50;65.14
20825;BME280;10573;50.936;6.978;2023-01-31T03:28:32;102086.78;;;6.40;65.13
20825;BME280;10573;50.936;6.978;2023-01-31T03:31:06;102084.34;;;6.02;66.36
20825;BME280;10573;50.936;6.978;2023-01-31T03:33:35;102088.78;;;5.68;66.82
20825;BME280;10573;50.936;6.978;2023-01-31T03:36:09;102089.88;;;5.81;67.24
20825;BME280;10573;50.936;6.978;2023-01-31T03:38:38;102087.91;;;5.85;66.92
20825;BME280;10573;50.936;6.978;2023-01-31T03:43:38;102087.44;;;5.77;67.33
20825;BME280;10573;50.936;6.978;2023-01-31T03:46:10;102082.19;;;5.91;66.54
20825;BME280;10573;50.936;6.978;2023-01-31T03:48:39;102086.31;;;5.81;66.69
20825;BME280;10573;50.936;6.978;2023-01-31T03:51:07;102081.94;;;5.78;66.93
20825;BME280;10573;50.936;6.978;2023-01-31T03:56:03;102073.38;;;5.70;67.09
20825;BME280;10573;50.936;6.978;2023-01-31T03:58:34;102085.31;;;5.66;67.47
20825;BME280;10573;50.936;6.978;2023-01-31T04:01:02;102079.44;;;5.58;67.18
20825;BME280;10573;50.936;6.978;2023-01-31T04:03:35;102089.50;;;5.71;67.09
20825;BME280;10573;50.936;6.978;2023-01-31T04:06:02;102092.22;;;5.71;67.24
20825;BME280;10573;50.936;6.978;2023-01-31T04:08:29;102085.69;;;5.58;67.53
20825;BME280;10573;50.936;6.978;2023-01-31T04:10:55;102082.91;;;5.60;67.43
20825;BME280;10573;50.936;6.978;2023-01-31T04:13:22;102073.47;;;5.51;67.49
20825;BME280;10573;50.936;6.978;2023-01-31T04:15:47;102077.97;;;5.50;67.72
20825;BME280;10573;50.936;6.978;2023-01-31T04:18:13;102082.53;;;5.50;67.66
20825;BME280;10573;50.936;6.978;2023-01-31T04:20:38;102067.91;;;5.54;67.72
20825;BME280;10573;50.936;6.978;2023-01-31T04:23:03;102058.66;;;5.41;68.23
20825;BME280;10573;50.936;6.978;2023-01-31T04:25:29;102053.75;;;5.49;68.24
20825;BME280;10573;50.936;6.978;2023-01-31T04:27:54;102055.50;;;5.50;67.74
20825;BME280;10573;50.936;6.978;2023-01-31T04:30:19;102058.84;;;5.55;67.95
20825;BME280;10573;50.936;6.978;2023-01-31T04:32:45;102053.59;;;5.52;67.75
20825;BME280;10573;50.936;6.978;2023-01-31T04:35:10;102049.63;;;5.24;68.76
20825;BME280;10573;50.936;6.978;2023-01-31T04:37:35;102045.00;;;5.44;68.27
20825;BME280;10573;50.936;6.978;2023-01-31T04:40:00;102052.16;;;5.45;68.44
20825;BME280;10573;50.936;6.978;2023-01-31T04:42:26;102046.91;;;5.42;68.81
20825;BME280;10573;50.936;6.978;2023-01-31T04:44:51;102048.97;;;5.36;68.86
20825;BME280;10573;50.936;6.978;2023-01-31T04:47:16;102054.28;;;5.38;68.59
20825;BME280;10573;50.936;6.978;2023-01-31T04:49:42;102050.88;;;5.34;68.77
20825;BME280;10573;50.936;6.978;2023-01-31T04:52:08;102045.72;;;5.30;68.79
20825;BME280;10573;50.936;6.978;2023-01-31T04:54:34;102043.56;;;5.36;68.67
20825;BME280;10573;50.936;6.978;2023-01-31T04:57:00;102046.84;;;5.26;68.60
20825;BME280;10573;50.936;6.978;2023-01-31T04:59:26;102045.81;;;5.28;68.62
20825;BME280;10573;50.936;6.978;2023-01-31T05:01:51;102041.03;;;5.16;69.21
20825;BME280;10573;50.936;6.978;2023-01-31T05:04:16;102038.16;;;5.19;68.86
20825;BME280;10573;50.936;6.978;2023-01-31T05:06:42;102043.25;;;5.08;69.00
20825;BME280;10573;50.936;6.978;2023-01-31T05:09:07;102035.81;;;4.94;69.92
20825;BME280;10573;50.936;6.978;2023-01-31T05:11:32;102037.84;;;5.08;69.41
20825;BME280;10573;50.936;6.978;2023-01-31T05:13:58;102042.84;;;5.15;69.09
20825;BME280;10573;50.936;6.978;2023-01-31T05:16:23;102041.97;;;4.97;69.41
20825;BME280;10573;50.936;6.978;2023-01-31T05:18:49;102031.44;;;4.91;69.96
20825;BME280;10573;50.936;6.978;2023-01-31T05:21:15;102030.41;;;4.94;69.94
20825;BME280;10573;50.936;6.978;2023-01-31T05:23:40;102036.56;;;4.97;69.74
20825;BME280;10573;50.936;6.978;2023-01-31T05:26:05;102037.84;;;5.08;69.75
20825;BME280;10573;50.936;6.978;2023-01-31T05:28:31;102027.44;;;5.35;68.82
20825;BME280;10573;50.936;6.978;2023-01-31T05:31:03;102022.03;;;5.35;68.82
20825;BME280;10573;50.936;6.978;2023-01-31T05:33:29;102023.44;;;5.42;68.87
20825;BME280;10573;50.936;6.978;2023-01-31T05:35:56;102024.19;;;5.46;68.92
20825;BME280;10573;50.936;6.978;2023-01-31T05:38:21;102024.47;;;5.57;68.20
20825;BME280;10573;50.936;6.978;2023-01-31T05:40:46;102027.81;;;5.45;68.65
20825;BME280;10573;50.936;6.978;2023-01-31T05:43:13;102018.13;;;5.41;69.23
20825;BME280;10573;50.936;6.978;2023-01-31T05:45:38;102025.44;;;5.56;68.94
20825;BME280;10573;50.936;6.978;2023-01-31T05:48:04;102016.75;;;5.67;68.62
20825;BME280;10573;50.936;6.978;2023-01-31T05:50:29;102029.06;;;5.72;68.35
20825;BME280;10573;50.936;6.978;2023-01-31T05:52:56;102024.22;;;5.79;68.12
20825;BME280;10573;50.936;6.978;2023-01-31T05:55:23;102027.31;;;5.71;68.08
20825;BME280;10573;50.936;6.978;2023-01-31T05:57:50;102033.69;;;5.70;68.54
20825;BME280;10573;50.936;6.978;2023-01-31T06:00:16;102027.38;;;5.87;68.22
20825;BME280;10573;50.936;6.978;2023-01-31T06:02:41;102024.31;;;5.78;67.98
20825;BME280;10573;50.936;6.978;2023-01-31T06:05:07;102024.69;;;5.70;68.91
20825;BME280;10573;50.936;6.978;2023-01-31T06:07:32;102030.06;;;5.87;68.08
20825;BME280;10573;50.936;6.978;2023-01-31T06:09:58;102023.94;;;5.84;68.29
20825;BME280;10573;50.936;6.978;2023-01-31T06:12:23;102021.09;;;5.87;68.20
20825;BME280;10573;50.936;6.978;2023-01-31T06:14:48;102009.06;;;5.93;68.12
20825;BME280;10573;50.936;6.978;2023-01-31T06:17:14;102014.69;;;6.05;67.45
20825;BME280;10573;50.936;6.978;2023-01-31T06:19:39;102013.00;;;5.87;67.67
20825;BME280;10573;50.936;6.978;2023-01-31T06:22:05;102014.53;;;6.09;67.58
20825;BME280;10573;50.936;6.978;2023-01-31T06:24:30;102008.88;;;5.96;67.80
20825;BME280;10573;50.936;6.978;2023-01-31T06:26:55;102005.53;;;6.08;67.75
20825;BME280;10573;50.936;6.978;2023-01-31T06:29:21;101999.28;;;5.90;68.12
20825;BME280;10573;50.936;6.978;2023-01-31T06:31:46;101992.47;;;6.16;67.57
20825;BME280;10573;50.936;6.978;2023-01-31T06:34:11;101993.00;;;6.23;67.45
20825;BME280;10573;50.936;6.978;2023-01-31T06:36:36;101992.56;;;6.31;66.98
20825;BME280;10573;50.936;6.978;2023-01-31T06:39:02;101994.03;;;6.04;67.61
20825;BME280;10573;50.936;6.978;2023-01-31T06:41:28;101985.03;;;6.20;67.23
20825;BME280;10573;50.936;6.978;2023-01-31T06:43:53;101977.28;;;6.14;67.30
20825;BME280;10573;50.936;6.978;2023-01-31T06:46:19;101979.47;;;6.23;66.88
20825;BME280;10573;50.936;6.978;2023-01-31T06:48:44;101978.34;;;6.27;67.24
20825;BME280;10573;50.936;6.978;2023-01-31T06:51:11;101987.66;;;6.37;66.95
20825;BME280;10573;50.936;6.978;2023-01-31T06:53:36;101994.84;;;6.38;66.72
20825;BME280;10573;50.936;6.978;2023-01-31T06:56:01;101998.25;;;6.26;66.67
20825;BME280;10573;50.936;6.978;2023-01-31T06:58:27;101991.88;;;6.27;66.45
20825;BME280;10573;50.936;6.978;2023-01-31T07:00:52;102002.59;;;6.13;66.91
20825;BME280;10573;50.936;6.978;2023-01-31T07:03:18;102011.34;;;6.18;67.02
20825;BME280;10573;50.936;6.978;2023-01-31T07:05:44;102009.84;;;6.28;66.38
20825;BME280;10573;50.936;6.978;2023-01-31T07:08:09;102001.13;;;6.23;66.77
20825;BME280;10573;50.936;6.978;2023-01-31T07:10:34;102003.91;;;6.37;66.24
20825;BME280;10573;50.936;6.978;2023-01-31T07:13:00;102006.72;;;6.52;65.86
20825;BME280;10573;50.936;6.978;2023-01-31T07:15:26;102009.50;;;6.50;65.73
20825;BME280;10573;50.936;6.978;2023-01-31T07:17:56;102008.47;;;6.53;65.78
20825;BME280;10573;50.936;6.978;2023-01-31T07:20:21;102007.41;;;6.40;65.77
20825;BME280;10573;50.936;6.978;2023-01-31T07:22:52;102008.88;;;6.61;65.59
20825;BME280;10573;50.936;6.978;2023-01-31T07:25:17;102008.97;;;6.44;65.41
20825;BME280;10573;50.936;6.978;2023-01-31T07:27:43;102018.66;;;6.48;65.10
20825;BME280;10573;50.936;6.978;2023-01-31T07:30:08;102019.91;;;6.58;65.12
20825;BME280;10573;50.936;6.978;2023-01-31T07:32:34;102031.03;;;6.20;65.88
20825;BME280;10573;50.936;6.978;2023-01-31T07:34:59;102027.50;;;6.35;65.81
20825;BME280;10573;50.936;6.978;2023-01-31T07:37:24;102027.50;;;6.51;65.34
20825;BME280;10573;50.936;6.978;2023-01-31T07:39:50;102012.97;;;6.52;64.90
20825;BME280;10573;50.936;6.978;2023-01-31T07:42:15;102013.78;;;6.38;65.30
20825;BME280;10573;50.936;6.978;2023-01-31T07:44:40;102006.53;;;6.39;65.27
20825;BME280;10573;50.936;6.978;2023-01-31T07:47:06;102012.53;;;6.44;64.81
20825;BME280;10573;50.936;6.978;2023-01-31T07:49:31;101998.69;;;6.50;64.35
20825;BME280;10573;50.936;6.978;2023-01-31T07:51:56;101992.66;;;6.45;64.24
20825;BME280;10573;50.936;6.978;2023-01-31T07:54:22;101989.59;;;6.67;63.71
20825;BME280;10573;50.936;6.978;2023-01-31T07:56:47;101984.09;;;6.53;64.04
20825;BME280;10573;50.936;6.978;2023-01-31T07:59:12;101978.19;;;6.77;63.66
20825;BME280;10573;50.936;6.978;2023-01-31T08:01:38;101973.56;;;6.79;63.03
20825;BME280;10573;50.936;6.978;2023-01-31T08:04:21;101983.47;;;6.94;62.41
20825;BME280;10573;50.936;6.978;2023-01-31T08:06:47;101978.31;;;7.05;62.21
20825;BME280;10573;50.936;6.978;2023-01-31T08:09:13;101970.72;;;6.96;62.11
20825;BME280;10573;50.936;6.978;2023-01-31T08:11:38;101980.22;;;7.03;61.73
20825;BME280;10573;50.936;6.978;2023-01-31T08:14:03;101982.94;;;7.03;61.48
20825;BME280;10573;50.936;6.978;2023-01-31T08:16:29;101976.94;;;6.98;61.32
20825;BME280;10573;50.936;6.978;2023-01-31T08:18:55;102001.31;;;6.98;61.40
20825;BME280;10573;50.936;6.978;2023-01-31T08:21:21;101995.00;;;6.67;62.19
20825;BME280;10573;50.936;6.978;2023-01-31T08:23:46;101981.50;;;6.82;62.14
20825;BME280;10573;50.936;6.978;2023-01-31T08:26:12;101991.25;;;7.00;61.66
20825;BME280;10573;50.936;6.978;2023-01-31T08:28:38;101991.31;;;7.15;61.09
20825;BME280;10573;50.936;6.978;2023-01-31T08:31:04;101988.63;;;6.99;61.58
20825;BME280;10573;50.936;6.978;2023-01-31T08:33:29;101968.81;;;6.98;61.22
20825;BME280;10573;50.936;6.978;2023-01-31T08:35:54;101969.88;;;6.96;61.66
20825;BME280;10573;50.936;6.978;2023-01-31T08:38:20;101968.53;;;7.03;61.96
20825;BME280;10573;50.936;6.978;2023-01-31T08:40:45;101963.25;;;7.16;61.58
20825;BME280;10573;50.936;6.978;2023-01-31T08:43:11;101967.47;;;7.05;61.49
20825;BME280;10573;50.936;6.978;2023-01-31T08:45:36;101957.84;;;7.16;61.63
20825;BME280;10573;50.936;6.978;2023-01-31T08:48:02;101945.38;;;6.97;62.18
20825;BME280;10573;50.936;6.978;2023-01-31T08:50:28;101958.66;;;7.02;62.00
20825;BME280;10573;50.936;6.978;2023-01-31T08:52:54;101964.34;;;6.97;62.36
20825;BME280;10573;50.936;6.978;2023-01-31T08:55:19;101955.03;;;7.17;62.22
20825;BME280;10573;50.936;6.978;2023-01-31T08:57:45;101968.28;;;7.22;62.45
20825;BME280;10573;50.936;6.978;2023-01-31T09:00:10;101956.09;;;7.15;62.46
20825;BME280;10573;50.936;6.978;2023-01-31T09:02:36;101966.31;;;7.10;62.93
20825;BME280;10573;50.936;6.978;2023-01-31T09:05:01;101965.78;;;7.19;62.83
20825;BME280;10573;50.936;6.978;2023-01-31T09:07:26;101959.75;;;7.14;62.80
20825;BME280;10573;50.936;6.978;2023-01-31T09:09:52;101953.28;;;7.16;63.10
20825;BME280;10573;50.936;6.978;2023-01-31T09:12:17;101959.66;;;7.15;63.08
20825;BME280;10573;50.936;6.978;2023-01-31T09:14:42;101937.50;;;7.23;63.07
20825;BME280;10573;50.936;6.978;2023-01-31T09:17:07;101935.94;;;7.19;63.30
20825;BME280;10573;50.936;6.978;2023-01-31T09:19:34;101936.50;;;7.10;63.63
20825;BME280;10573;50.936;6.978;2023-01-31T09:22:00;101942.84;;;6.94;64.27
20825;BME280;10573;50.936;6.978;2023-01-31T09:24:25;101927.91;;;7.17;63.83
20825;BME280;10573;50.936;6.978;2023-01-31T09:26:50;101932.44;;;7.17;64.55
20825;BME280;10573;50.936;6.978;2023-01-31T09:29:18;101924.16;;;7.20;64.81
20825;BME280;10573;50.936;6.978;2023-01-31T09:31:43;101922.38;;;7.04;65.31
20825;BME280;10573;50.936;6.978;2023-01-31T09:34:09;101925.97;;;7.19;65.20
20825;BME280;10573;50.936;6.978;2023-01-31T09:36:34;101920.09;;;7.27;64.63
20825;BME280;10573;50.936;6.978;2023-01-31T09:38:59;101922.22;;;7.36;64.43
20825;BME280;10573;50.936;6.978;2023-01-31T09:44:03;101929.06;;;7.13;64.91
20825;BME280;10573;50.936;6.978;2023-01-31T09:46:32;101924.63;;;7.12;64.95
20825;BME280;10573;50.936;6.978;2023-01-31T09:48:59;101922.00;;;7.25;64.71
20825;BME280;10573;50.936;6.978;2023-01-31T09:51:26;101922.91;;;7.40;64.50
20825;BME280;10573;50.936;6.978;2023-01-31T09:53:51;101917.78;;;7.50;64.31
20825;BME280;10573;50.936;6.978;2023-01-31T09:58:51;101910.22;;;7.41;64.72
20825;BME280;10573;50.936;6.978;2023-01-31T10:09:34;101899.09;;;7.31;66.27
20825;BME280;10573;50.936;6.978;2023-01-31T10:14:46;101900.75;;;7.33;66.93
20825;BME280;10573;50.936;6.978;2023-01-31T10:19:42;101892.03;;;7.43;66.87
20825;BME280;10573;50.936;6.978;2023-01-31T10:22:12;101885.53;;;7.31;67.10
20825;BME280;10573;50.936;6.978;2023-01-31T10:25:16;101876.91;;;7.38;67.19
20825;BME280;10573;50.936;6.978;2023-01-31T10:27:34;101876.72;;;7.42;67.09
20825;BME280;10573;50.936;6.978;2023-01-31T10:30:04;101878.84;;;7.36;67.15
20825;BME280;10573;50.936;6.978;2023-01-31T10:32:42;101876.31;;;7.48;66.57
20825;BME280;10573;50.936;6.978;2023-01-31T10:37:42;101858.88;;;7.66;65.20
20825;BME280;10573;50.936;6.978;2023-01-31T10:40:15;101848.38;;;7.89;65.06
20825;BME280;10573;50.936;6.978;2023-01-31T10:42:44;101846.84;;;7.85;64.85
20825;BME280;10573;50.936;6.978;2023-01-31T10:45:16;101848.97;;;7.80;65.15
20825;BME280;10573;50.936;6.978;2023-01-31T10:47:52;101841.72;;;7.80;65.03
20825;BME280;10573;50.936;6.978;2023-01-31T10:50:20;101855.56;;;7.76;65.23
20825;BME280;10573;50.936;6.978;2023-01-31T10:52:58;101839.47;;;7.87;65.10
20825;BME280;10573;50.936;6.978;2023-01-31T10:55:41;101834.44;;;7.81;65.32
20825;BME280;10573;50.936;6.978;2023-01-31T10:58:18;101817.59;;;7.76;65.39
20825;BME280;10573;50.936;6.978;2023-01-31T11:00:46;101817.00;;;7.85;64.96
20825;BME280;10573;50.936;6.978;2023-01-31T11:03:12;101827.25;;;7.94;64.56
20825;BME280;10573;50.936;6.978;2023-01-31T11:05:48;101825.22;;;7.98;64.64
20825;BME280;10573;50.936;6.978;2023-01-31T11:10:52;101790.28;;;8.06;64.13
20825;BME280;10573;50.936;6.978;2023-01-31T11:13:18;101796.56;;;8.06;63.68
20825;BME280;10573;50.936;6.978;2023-01-31T11:15:44;101784.69;;;8.22;63.63
20825;BME280;10573;50.936;6.978;2023-01-31T11:18:23;101784.41;;;8.12;63.64
20825;BME280;10573;50.936;6.978;2023-01-31T11:20:50;101774.13;;;8.17;63.69
20825;BME280;10573;50.936;6.978;2023-01-31T11:23:16;101765.34;;;8.27;62.79
20825;BME280;10573;50.936;6.978;2023-01-31T11:25:46;101773.16;;;8.18;63.05
20825;BME280;10573;50.936;6.978;2023-01-31T11:30:56;101750.31;;;8.48;62.35
20825;BME280;10573;50.936;6.978;2023-01-31T11:36:21;101755.78;;;8.61;62.08
20825;BME280;10573;50.936;6.978;2023-01-31T11:38:49;101746.09;;;8.70;61.74
20825;BME280;10573;50.936;6.978;2023-01-31T11:41:28;101742.94;;;8.63;61.25
20825;BME280;10573;50.936;6.978;2023-01-31T11:44:09;101745.88;;;8.60;61.80
20825;BME280;10573;50.936;6.978;2023-01-31T11:46:44;101726.19;;;8.44;62.00
20825;BME280;10573;50.936;6.978;2023-01-31T11:49:11;101734.59;;;8.66;61.65
20825;BME280;10573;50.936;6.978;2023-01-31T11:51:37;101742.19;;;8.87;61.25
20825;BME280;10573;50.936;6.978;2023-01-31T11:54:04;101735.78;;;8.88;61.29
20825;BME280;10573;50.936;6.978;2023-01-31T11:56:30;101718.50;;;8.50;62.19
20825;BME280;10573;50.936;6.978;2023-01-31T11:59:02;101723.72;;;8.53;62.69
20825;BME280;10573;50.936;6.978;2023-01-31T12:01:30;101718.50;;;8.63;62.16
20825;BME280;10573;50.936;6.978;2023-01-31T12:03:57;101711.09;;;8.52;62.67
20825;BME280;10573;50.936;6.978;2023-01-31T12:06:27;101714.56;;;8.67;62.26
20825;BME280;10573;50.936;6.978;2023-01-31T12:08:53;101709.16;;;8.67;62.67
20825;BME280;10573;50.936;6.978;2023-01-31T12:13:51;101714.59;;;8.80;63.04
20825;BME280;10573;50.936;6.978;2023-01-31T12:16:18;101706.31;;;8.82;62.89
20825;BME280;10573;50.936;6.978;2023-01-31T12:31:25;101690.88;;;8.95;63.43
20825;BME280;10573;50.936;6.978;2023-01-31T12:34:00;101697.97;;;9.22;62.84
20825;BME280;10573;50.936;6.978;2023-01-31T12:41:39;101694.25;;;8.86;64.13
20825;BME280;10573;50.936;6.978;2023-01-31T12:46:54;101684.56;;;8.82;65.11
20825;BME280;10573;50.936;6.978;2023-01-31T12:49:43;101675.03;;;8.76;65.41
20825;BME280;10573;50.936;6.978;2023-01-31T12:54:54;101680.00;;;8.95;65.03
20825;BME280;10573;50.936;6.978;2023-01-31T13:00:11;101680.66;;;8.86;65.77
20825;BME280;10573;50.936;6.978;2023-01-31T13:03:02;101677.38;;;9.06;65.47
20825;BME280;10573;50.936;6.978;2023-01-31T13:08:03;101671.09;;;8.93;65.89
20825;BME280;10573;50.936;6.978;2023-01-31T13:12:55;101679.56;;;9.01;65.75
20825;BME280;10573;50.936;6.978;2023-01-31T13:18:00;101666.09;;;8.87;66.01
20825;BME280;10573;50.936;6.978;2023-01-31T13:23:00;101664.59;;;8.83;66.72
20825;BME280;10573;50.936;6.978;2023-01-31T13:28:00;101681.50;;;8.99;66.26
20825;BME280;10573;50.936;6.978;2023-01-31T13:32:54;101686.50;;;9.05;66.24
20825;BME280;10573;50.936;6.978;2023-01-31T13:35:21;101695.94;;;9.13;66.05
20825;BME280;10573;50.936;6.978;2023-01-31T13:37:49;101692.78;;;9.06;66.17
20825;BME280;10573;50.936;6.978;2023-01-31T13:40:22;101691.22;;;8.78;67.23
20825;BME280;10573;50.936;6.978;2023-01-31T13:42:48;101674.38;;;8.85;66.88
20825;BME280;10573;50.936;6.978;2023-01-31T13:45:21;101678.59;;;8.89;66.41
20825;BME280;10573;50.936;6.978;2023-01-31T13:47:52;101679.38;;;8.79;67.00
20825;BME280;10573;50.936;6.978;2023-01-31T13:50:38;101676.84;;;8.88;66.73
20825;BME280;10573;50.936;6.978;2023-01-31T13:53:10;101672.97;;;8.80;67.43
20825;BME280;10573;50.936;6.978;2023-01-31T13:55:38;101677.38;;;8.94;67.08
20825;BME280;10573;50.936;6.978;2023-01-31T13:58:05;101680.66;;;8.86;67.19
20825;BME280;10573;50.936;6.978;2023-01-31T14:00:41;101675.56;;;8.68;67.95
20825;BME280;10573;50.936;6.978;2023-01-31T14:03:11;101672.66;;;8.59;69.06
20825;BME280;10573;50.936;6.978;2023-01-31T14:10:48;101681.34;;;8.51;70.86
20825;BME280;10573;50.936;6.978;2023-01-31T14:13:24;101678.50;;;8.52;71.70
20825;BME280;10573;50.936;6.978;2023-01-31T14:15:51;101680.50;;;8.50;71.75
20825;BME280;10573;50.936;6.978;2023-01-31T14:18:38;101676.31;;;8.32;72.52
20825;BME280;10573;50.936;6.978;2023-01-31T14:23:46;101693.03;;;8.38;73.23
20825;BME280;10573;50.936;6.978;2023-01-31T14:26:30;101687.19;;;8.45;73.61
20825;BME280;10573;50.936;6.978;2023-01-31T14:28:56;101684.16;;;8.49;73.41
20825;BME280;10573;50.936;6.978;2023-01-31T14:31:21;101684.41;;;8.46;72.75
20825;BME280;10573;50.936;6.978;2023-01-31T14:33:47;101676.53;;;8.42;73.67
20825;BME280;10573;50.936;6.978;2023-01-31T14:59:30;101668.50;;;8.40;74.08
20825;BME280;10573;50.936;6.978;2023-01-31T15:01:56;101678.22;;;8.57;73.75
20825;BME280;10573;50.936;6.978;2023-01-31T15:04:23;101673.25;;;8.36;74.12
20825;BME280;10573;50.936;6.978;2023-01-31T15:06:50;101681.97;;;8.42;74.46
20825;BME280;10573;50.936;6.978;2023-01-31T15:11:45;101679.41;;;8.53;74.39
20825;BME280;10573;50.936;6.978;2023-01-31T15:16:53;101682.31;;;8.50;74.75
20825;BME280;10573;50.936;6.978;2023-01-31T15:19:21;101679.25;;;8.42;74.86
20825;BME280;10573;50.936;6.978;2023-01-31T15:21:55;101696.72;;;8.37;75.13
20825;BME280;10573;50.936;6.978;2023-01-31T15:24:28;101696.72;;;8.37;75.22
20825;BME280;10573;50.936;6.978;2023-01-31T15:26:55;101693.59;;;8.44;75.09
20825;BME280;10573;50.936;6.978;2023-01-31T15:29:23;101685.84;;;8.12;75.63